createdAt,value
2022-11-13T00:00:40.659Z,0.00
2022-11-13T00:01:40.671Z,0.00
2022-11-13T00:02:40.749Z,0.00
2022-11-13T00:03:40.714Z,0.00
2022-11-13T00:04:40.711Z,0.00
2022-11-13T00:05:40.720Z,0.00
2022-11-13T00:06:40.772Z,0.00
2022-11-13T00:07:40.754Z,0.00
2022-11-13T00:08:40.774Z,0.00
2022-11-13T00:09:40.781Z,0.00
2022-11-13T00:10:40.785Z,0.00
2022-11-13T00:11:40.794Z,0.00
2022-11-13T00:12:40.806Z,0.00
2022-11-13T00:13:40.820Z,0.00
2022-11-13T00:14:40.829Z,0.00
2022-11-13T00:15:40.845Z,0.00
2022-11-13T00:16:40.855Z,0.00
2022-11-13T00:17:40.867Z,0.00
2022-11-13T00:18:40.879Z,0.00
2022-11-13T00:19:40.895Z,0.00
2022-11-13T00:20:40.906Z,0.00
2022-11-13T00:21:40.917Z,0.00
2022-11-13T00:22:40.931Z,0.00
2022-11-13T00:23:40.946Z,0.00
2022-11-13T00:24:40.954Z,0.00
2022-11-13T00:25:40.969Z,0.00
2022-11-13T00:26:40.981Z,0.00
2022-11-13T00:27:40.996Z,0.00
2022-11-13T00:28:41.005Z,0.00
2022-11-13T00:29:41.018Z,0.00
2022-11-13T00:30:41.031Z,0.00
2022-11-13T00:31:41.047Z,0.00
2022-11-13T00:32:41.059Z,0.00
2022-11-13T00:34:47.478Z,0.00
2022-11-13T00:35:41.094Z,0.00
2022-11-13T00:36:41.110Z,0.00
2022-11-13T00:37:41.119Z,0.00
2022-11-13T00:38:41.136Z,0.00
2022-11-13T00:39:41.145Z,0.00
2022-11-13T00:40:41.159Z,0.00
2022-11-13T00:41:41.170Z,0.00
2022-11-13T00:42:41.186Z,0.00
2022-11-13T00:43:41.198Z,0.00
2022-11-13T00:44:41.208Z,0.00
2022-11-13T00:45:41.223Z,0.00
2022-11-13T00:46:41.235Z,0.00
2022-11-13T00:47:41.245Z,0.00
2022-11-13T00:48:41.261Z,0.00
2022-11-13T00:49:41.274Z,0.00
2022-11-13T00:50:41.287Z,0.00
2022-11-13T00:51:41.298Z,0.00
2022-11-13T00:52:41.311Z,0.00
2022-11-13T00:53:41.329Z,0.00
2022-11-13T00:54:41.337Z,0.00
2022-11-13T00:55:41.352Z,0.00
2022-11-13T00:56:41.362Z,0.00
2022-11-13T00:57:41.376Z,0.00
2022-11-13T00:58:41.418Z,0.00
2022-11-13T00:59:41.404Z,0.00
2022-11-13T01:00:41.414Z,0.00
2022-11-13T01:01:41.469Z,0.00
2022-11-13T01:02:41.439Z,0.00
2022-11-13T01:03:41.457Z,0.00
2022-11-13T01:04:41.467Z,0.00
2022-11-13T01:05:41.480Z,0.00
2022-11-13T01:06:41.553Z,0.00
2022-11-13T01:07:41.505Z,0.00
2022-11-13T01:08:41.516Z,0.00
2022-11-13T01:09:41.530Z,0.00
2022-11-13T01:10:42.279Z,0.00
2022-11-13T01:11:41.556Z,0.00
2022-11-13T01:12:41.570Z,0.00
2022-11-13T01:13:41.582Z,0.00
2022-11-13T01:14:41.596Z,0.00
2022-11-13T01:15:41.609Z,0.00
2022-11-13T01:16:41.622Z,0.00
2022-11-13T01:17:41.634Z,0.00
2022-11-13T01:18:41.647Z,0.00
2022-11-13T01:19:41.663Z,0.00
2022-11-13T01:20:41.672Z,0.00
2022-11-13T01:21:41.692Z,0.00
2022-11-13T01:22:41.699Z,0.00
2022-11-13T01:23:41.714Z,0.00
2022-11-13T01:24:41.729Z,0.00
2022-11-13T01:25:41.738Z,0.00
2022-11-13T01:26:41.749Z,0.00
2022-11-13T01:27:41.764Z,0.00
2022-11-13T01:28:41.777Z,0.00
2022-11-13T01:29:41.791Z,0.00
2022-11-13T01:30:41.803Z,0.00
2022-11-13T01:31:41.820Z,0.00
2022-11-13T01:32:41.829Z,0.00
2022-11-13T01:33:41.845Z,0.00
2022-11-13T01:34:41.860Z,0.00
2022-11-13T01:35:41.870Z,0.00
2022-11-13T01:36:41.883Z,0.00
2022-11-13T01:37:41.897Z,0.00
2022-11-13T01:38:41.914Z,0.00
2022-11-13T01:39:41.925Z,0.00
2022-11-13T01:40:41.934Z,0.00
2022-11-13T01:41:41.952Z,0.00
2022-11-13T01:42:41.966Z,0.00
2022-11-13T01:43:41.977Z,0.00
2022-11-13T01:44:41.991Z,0.00
2022-11-13T01:45:42.002Z,0.00
2022-11-13T01:46:42.015Z,0.00
2022-11-13T01:47:42.029Z,0.00
2022-11-13T01:48:42.041Z,0.00
2022-11-13T01:49:42.056Z,0.00
2022-11-13T01:50:42.068Z,0.00
2022-11-13T01:51:42.081Z,0.00
2022-11-13T01:52:42.094Z,0.00
2022-11-13T01:53:42.107Z,0.00
2022-11-13T01:54:42.121Z,0.00
2022-11-13T01:55:42.135Z,0.00
2022-11-13T01:56:42.147Z,0.00
2022-11-13T01:57:42.165Z,0.00
2022-11-13T01:58:42.174Z,0.00
2022-11-13T01:59:42.188Z,0.00
2022-11-13T02:00:42.211Z,0.00
2022-11-13T02:01:42.283Z,0.00
2022-11-13T02:02:42.226Z,0.00
2022-11-13T02:03:42.243Z,0.00
2022-11-13T02:04:42.265Z,0.00
2022-11-13T02:05:42.272Z,0.00
2022-11-13T02:06:42.324Z,0.00
2022-11-13T02:07:42.295Z,0.00
2022-11-13T02:08:42.308Z,0.00
2022-11-13T02:09:42.328Z,0.00
2022-11-13T02:10:42.335Z,0.00
2022-11-13T02:11:42.348Z,0.00
2022-11-13T02:12:42.362Z,0.00
2022-11-13T02:13:42.375Z,0.00
2022-11-13T02:14:42.390Z,0.00
2022-11-13T02:15:42.401Z,0.00
2022-11-13T02:16:42.415Z,0.00
2022-11-13T02:17:42.430Z,0.00
2022-11-13T02:18:42.444Z,0.00
2022-11-13T02:19:42.460Z,0.00
2022-11-13T02:20:42.474Z,0.00
2022-11-13T02:21:42.485Z,0.00
2022-11-13T02:22:42.497Z,0.00
2022-11-13T02:23:42.510Z,0.00
2022-11-13T02:24:45.230Z,0.00
2022-11-13T02:25:42.536Z,0.00
2022-11-13T02:26:42.550Z,0.00
2022-11-13T02:27:42.563Z,0.00
2022-11-13T02:28:42.577Z,0.00
2022-11-13T02:29:42.599Z,0.00
2022-11-13T02:30:42.623Z,0.00
2022-11-13T02:31:42.626Z,0.00
2022-11-13T02:32:42.632Z,0.00
2022-11-13T02:33:42.647Z,0.00
2022-11-13T02:34:42.676Z,0.00
2022-11-13T02:35:42.676Z,0.00
2022-11-13T02:36:42.684Z,0.00
2022-11-13T02:37:42.699Z,0.00
2022-11-13T02:38:42.713Z,0.00
2022-11-13T02:39:42.725Z,0.00
2022-11-13T02:40:42.740Z,0.00
2022-11-13T02:41:42.754Z,0.00
2022-11-13T02:42:42.767Z,0.00
2022-11-13T02:43:42.782Z,0.00
2022-11-13T02:44:42.792Z,0.00
2022-11-13T02:45:42.806Z,0.00
2022-11-13T02:46:42.820Z,0.00
2022-11-13T02:47:42.835Z,0.00
2022-11-13T02:48:42.847Z,0.00
2022-11-13T02:49:42.863Z,0.00
2022-11-13T02:50:42.874Z,0.00
2022-11-13T02:51:42.889Z,0.00
2022-11-13T02:52:42.930Z,0.00
2022-11-13T02:53:42.914Z,0.00
2022-11-13T02:54:42.930Z,0.00
2022-11-13T02:55:42.943Z,0.00
2022-11-13T02:56:42.957Z,0.00
2022-11-13T02:57:42.971Z,0.00
2022-11-13T02:58:42.983Z,0.00
2022-11-13T02:59:43.000Z,0.00
2022-11-13T03:00:43.015Z,0.00
2022-11-13T03:01:43.054Z,0.00
2022-11-13T03:02:43.038Z,0.00
2022-11-13T03:03:58.644Z,0.00
2022-11-13T03:05:11.009Z,0.00
2022-11-13T03:05:43.082Z,0.00
2022-11-13T03:06:43.128Z,0.00
2022-11-13T03:07:43.107Z,0.00
2022-11-13T03:08:43.120Z,0.00
2022-11-13T03:09:43.136Z,0.00
2022-11-13T03:10:43.151Z,0.00
2022-11-13T03:11:43.165Z,0.00
2022-11-13T03:12:43.176Z,0.00
2022-11-13T03:13:43.189Z,0.00
2022-11-13T03:14:43.208Z,0.00
2022-11-13T03:15:43.224Z,0.00
2022-11-13T03:16:43.234Z,0.00
2022-11-13T03:17:43.245Z,0.00
2022-11-13T03:18:43.261Z,0.00
2022-11-13T03:19:43.275Z,0.00
2022-11-13T03:20:43.291Z,0.00
2022-11-13T03:21:43.301Z,0.00
2022-11-13T03:22:43.315Z,0.00
2022-11-13T03:23:43.333Z,0.00
2022-11-13T03:24:43.346Z,0.00
2022-11-13T03:25:43.356Z,0.00
2022-11-13T03:26:43.371Z,0.00
2022-11-13T03:27:43.386Z,0.00
2022-11-13T03:28:43.399Z,0.00
2022-11-13T03:29:43.412Z,0.00
2022-11-13T03:30:43.427Z,0.00
2022-11-13T03:31:43.441Z,0.00
2022-11-13T03:32:43.457Z,0.00
2022-11-13T03:33:43.471Z,0.00
2022-11-13T03:34:43.481Z,0.00
2022-11-13T03:35:46.984Z,0.00
2022-11-13T03:36:43.510Z,0.00
2022-11-13T03:37:43.525Z,0.00
2022-11-13T03:38:43.539Z,0.00
2022-11-13T03:39:43.551Z,0.00
2022-11-13T03:40:43.564Z,0.00
2022-11-13T03:41:43.578Z,0.00
2022-11-13T03:42:43.644Z,0.00
2022-11-13T03:43:43.609Z,0.00
2022-11-13T03:44:43.620Z,0.00
2022-11-13T03:45:43.634Z,0.00
2022-11-13T03:46:43.648Z,0.00
2022-11-13T03:47:43.663Z,0.00
2022-11-13T03:48:43.677Z,0.00
2022-11-13T03:49:43.689Z,0.00
2022-11-13T03:50:45.626Z,0.00
2022-11-13T03:51:43.720Z,0.00
2022-11-13T03:52:43.730Z,0.00
2022-11-13T03:53:43.745Z,0.00
2022-11-13T03:54:43.762Z,0.00
2022-11-13T03:55:43.773Z,0.00
2022-11-13T03:56:43.786Z,0.00
2022-11-13T03:57:43.801Z,0.00
2022-11-13T03:58:48.460Z,0.00
2022-11-13T03:59:43.835Z,0.00
2022-11-13T04:00:43.848Z,0.00
2022-11-13T04:01:43.883Z,0.00
2022-11-13T04:02:43.872Z,0.00
2022-11-13T04:03:43.891Z,0.00
2022-11-13T04:04:43.898Z,0.00
2022-11-13T04:05:43.913Z,0.00
2022-11-13T04:06:43.964Z,0.00
2022-11-13T04:07:43.941Z,0.00
2022-11-13T04:08:43.953Z,0.00
2022-11-13T04:09:43.968Z,0.00
2022-11-13T04:10:43.984Z,0.00
2022-11-13T04:11:43.995Z,0.00
2022-11-13T04:12:44.009Z,0.00
2022-11-13T04:13:44.023Z,0.00
2022-11-13T04:14:44.037Z,0.00
2022-11-13T04:15:44.049Z,0.00
2022-11-13T04:16:44.063Z,0.00
2022-11-13T04:17:44.078Z,0.00
2022-11-13T04:18:44.092Z,0.00
2022-11-13T04:19:44.110Z,0.00
2022-11-13T04:20:44.123Z,0.00
2022-11-13T04:21:44.133Z,0.00
2022-11-13T04:22:44.147Z,0.00
2022-11-13T04:23:44.161Z,0.00
2022-11-13T04:24:44.176Z,0.00
2022-11-13T04:25:44.191Z,0.00
2022-11-13T04:26:44.204Z,0.00
2022-11-13T04:27:44.219Z,0.00
2022-11-13T04:28:44.232Z,0.00
2022-11-13T04:29:44.245Z,0.00
2022-11-13T04:30:44.260Z,0.00
2022-11-13T04:31:44.276Z,0.00
2022-11-13T04:32:44.285Z,0.00
2022-11-13T04:33:44.301Z,0.00
2022-11-13T04:34:44.314Z,0.00
2022-11-13T04:35:44.329Z,0.00
2022-11-13T04:36:44.347Z,0.00
2022-11-13T04:37:44.356Z,0.00
2022-11-13T04:38:44.372Z,0.00
2022-11-13T04:39:44.384Z,0.00
2022-11-13T04:40:44.397Z,0.00
2022-11-13T04:41:44.414Z,0.00
2022-11-13T04:42:44.428Z,0.00
2022-11-13T04:43:44.441Z,0.00
2022-11-13T04:44:44.454Z,0.00
2022-11-13T04:45:44.470Z,0.00
2022-11-13T04:46:44.483Z,0.00
2022-11-13T04:47:44.507Z,0.00
2022-11-13T04:48:44.525Z,0.00
2022-11-13T04:49:44.525Z,0.00
2022-11-13T04:50:44.539Z,0.00
2022-11-13T04:51:44.559Z,0.00
2022-11-13T04:52:44.579Z,0.00
2022-11-13T04:53:44.589Z,0.00
2022-11-13T04:54:44.594Z,0.00
2022-11-13T04:55:44.607Z,0.00
2022-11-13T04:56:44.623Z,0.00
2022-11-13T04:57:44.636Z,0.00
2022-11-13T04:58:44.653Z,0.00
2022-11-13T04:59:44.667Z,0.00
2022-11-13T05:00:44.678Z,0.00
2022-11-13T05:01:44.729Z,0.00
2022-11-13T05:02:44.711Z,0.00
2022-11-13T05:03:44.720Z,0.00
2022-11-13T05:04:44.734Z,0.00
2022-11-13T05:05:44.745Z,0.00
2022-11-13T05:06:44.816Z,0.00
2022-11-13T05:07:44.774Z,0.00
2022-11-13T05:08:44.787Z,0.00
2022-11-13T05:09:44.803Z,0.00
2022-11-13T05:10:44.816Z,0.00
2022-11-13T05:11:44.831Z,0.00
2022-11-13T05:12:44.843Z,0.00
2022-11-13T05:13:44.858Z,0.00
2022-11-13T05:14:44.875Z,0.00
2022-11-13T05:15:44.889Z,0.00
2022-11-13T05:16:44.900Z,0.00
2022-11-13T05:17:44.922Z,0.00
2022-11-13T05:18:44.928Z,0.00
2022-11-13T05:19:44.941Z,0.00
2022-11-13T05:20:44.956Z,0.00
2022-11-13T05:21:44.969Z,0.00
2022-11-13T05:22:44.983Z,0.00
2022-11-13T05:23:44.997Z,0.00
2022-11-13T05:24:45.013Z,0.00
2022-11-13T05:25:45.024Z,0.00
2022-11-13T05:26:45.037Z,0.00
2022-11-13T05:27:45.052Z,0.00
2022-11-13T05:28:45.067Z,0.00
2022-11-13T05:29:45.106Z,0.00
2022-11-13T05:30:45.093Z,0.00
2022-11-13T05:31:45.109Z,0.00
2022-11-13T05:32:45.124Z,0.00
2022-11-13T05:33:45.136Z,0.00
2022-11-13T05:34:45.148Z,0.00
2022-11-13T05:35:45.164Z,0.00
2022-11-13T05:36:45.175Z,0.00
2022-11-13T05:37:45.190Z,0.00
2022-11-13T05:38:45.203Z,0.00
2022-11-13T05:39:45.216Z,0.00
2022-11-13T05:40:45.230Z,0.00
2022-11-13T05:41:45.245Z,0.00
2022-11-13T05:42:45.308Z,0.00
2022-11-13T05:43:45.289Z,0.00
2022-11-13T05:44:45.285Z,0.00
2022-11-13T05:45:45.300Z,0.00
2022-11-13T05:46:45.314Z,0.00
2022-11-13T05:47:45.329Z,0.00
2022-11-13T05:48:45.342Z,0.00
2022-11-13T05:49:45.354Z,0.00
2022-11-13T05:50:45.369Z,0.00
2022-11-13T05:51:45.383Z,0.00
2022-11-13T05:52:45.394Z,0.00
2022-11-13T05:53:45.408Z,0.00
2022-11-13T05:54:45.423Z,0.00
2022-11-13T05:55:45.437Z,0.00
2022-11-13T05:56:45.451Z,0.00
2022-11-13T05:57:45.465Z,0.00
2022-11-13T05:58:45.479Z,0.00
2022-11-13T05:59:45.493Z,0.00
2022-11-13T06:00:45.505Z,0.00
2022-11-13T06:01:45.571Z,0.00
2022-11-13T06:02:45.535Z,0.00
2022-11-13T06:03:45.547Z,0.00
2022-11-13T06:04:45.564Z,0.00
2022-11-13T06:05:45.576Z,0.00
2022-11-13T06:06:45.670Z,0.00
2022-11-13T06:07:45.603Z,0.00
2022-11-13T06:08:45.620Z,0.00
2022-11-13T06:09:45.629Z,0.00
2022-11-13T06:10:45.655Z,0.00
2022-11-13T06:11:45.662Z,0.00
2022-11-13T06:12:45.677Z,0.00
2022-11-13T06:13:45.685Z,0.00
2022-11-13T06:14:45.700Z,0.00
2022-11-13T06:15:45.714Z,0.00
2022-11-13T06:16:45.728Z,0.00
2022-11-13T06:17:45.744Z,0.00
2022-11-13T06:18:45.758Z,0.00
2022-11-13T06:19:45.772Z,0.00
2022-11-13T06:20:45.784Z,0.00
2022-11-13T06:21:45.806Z,0.00
2022-11-13T06:22:45.811Z,0.00
2022-11-13T06:23:45.825Z,0.00
2022-11-13T06:24:45.838Z,0.00
2022-11-13T06:25:45.855Z,0.00
2022-11-13T06:26:45.868Z,0.00
2022-11-13T06:27:45.884Z,0.00
2022-11-13T06:28:45.893Z,0.00
2022-11-13T06:29:45.908Z,5.63
2022-11-13T06:30:45.923Z,5.63
2022-11-13T06:31:45.947Z,5.63
2022-11-13T06:32:45.951Z,5.63
2022-11-13T06:33:45.967Z,5.63
2022-11-13T06:34:45.980Z,5.63
2022-11-13T06:35:45.995Z,5.63
2022-11-13T06:36:46.006Z,5.63
2022-11-13T06:37:46.022Z,5.63
2022-11-13T06:38:46.091Z,5.63
2022-11-13T06:39:46.049Z,5.63
2022-11-13T06:40:46.062Z,5.63
2022-11-13T06:41:46.080Z,5.63
2022-11-13T06:42:46.091Z,5.63
2022-11-13T06:43:46.110Z,5.63
2022-11-13T06:44:46.120Z,11.25
2022-11-13T06:45:46.135Z,11.25
2022-11-13T06:46:46.145Z,11.25
2022-11-13T06:47:46.163Z,11.25
2022-11-13T06:48:46.177Z,11.25
2022-11-13T06:49:46.191Z,11.25
2022-11-13T06:50:48.568Z,11.25
2022-11-13T06:51:46.218Z,11.25
2022-11-13T06:52:46.230Z,11.25
2022-11-13T06:53:46.243Z,16.88
2022-11-13T06:54:46.259Z,16.88
2022-11-13T06:55:46.274Z,16.88
2022-11-13T06:56:46.286Z,22.50
2022-11-13T06:57:46.301Z,22.50
2022-11-13T06:58:46.316Z,22.50
2022-11-13T06:59:46.334Z,22.50
2022-11-13T07:00:46.396Z,22.50
2022-11-13T07:01:46.355Z,22.50
2022-11-13T07:02:46.376Z,22.50
2022-11-13T07:03:46.387Z,22.50
2022-11-13T07:04:46.399Z,22.50
2022-11-13T07:05:46.449Z,22.50
2022-11-13T07:06:46.474Z,22.50
2022-11-13T07:07:46.441Z,22.50
2022-11-13T07:08:46.456Z,16.88
2022-11-13T07:09:46.474Z,16.88
2022-11-13T07:10:46.499Z,22.50
2022-11-13T07:11:46.500Z,22.50
2022-11-13T07:12:50.645Z,22.50
2022-11-13T07:13:46.527Z,22.50
2022-11-13T07:14:46.550Z,22.50
2022-11-13T07:15:46.555Z,22.50
2022-11-13T07:17:08.131Z,22.50
2022-11-13T07:17:46.582Z,22.50
2022-11-13T07:18:46.595Z,28.13
2022-11-13T07:19:46.612Z,28.13
2022-11-13T07:20:46.626Z,28.13
2022-11-13T07:21:46.640Z,28.13
2022-11-13T07:22:46.654Z,28.13
2022-11-13T07:23:46.666Z,28.13
2022-11-13T07:24:46.682Z,28.13
2022-11-13T07:25:46.694Z,28.13
2022-11-13T07:26:46.710Z,33.75
2022-11-13T07:27:46.724Z,33.75
2022-11-13T07:28:46.737Z,33.75
2022-11-13T07:29:46.751Z,33.75
2022-11-13T07:30:46.766Z,39.38
2022-11-13T07:31:46.780Z,39.38
2022-11-13T07:32:46.794Z,39.38
2022-11-13T07:33:46.806Z,39.38
2022-11-13T07:34:46.819Z,45.00
2022-11-13T07:35:46.836Z,45.00
2022-11-13T07:36:46.849Z,45.00
2022-11-13T07:37:46.865Z,45.00
2022-11-13T07:38:46.877Z,45.00
2022-11-13T07:39:46.892Z,50.63
2022-11-13T07:40:46.905Z,50.63
2022-11-13T07:41:46.919Z,56.25
2022-11-13T07:42:46.936Z,56.25
2022-11-13T07:43:46.950Z,50.63
2022-11-13T07:44:55.258Z,50.63
2022-11-13T07:45:46.977Z,50.63
2022-11-13T07:46:46.989Z,50.63
2022-11-13T07:47:47.008Z,45.00
2022-11-13T07:48:47.020Z,50.63
2022-11-13T07:49:47.036Z,50.63
2022-11-13T07:50:47.050Z,50.63
2022-11-13T07:51:47.061Z,50.63
2022-11-13T07:52:47.075Z,50.63
2022-11-13T07:53:47.088Z,50.63
2022-11-13T07:54:47.107Z,45.00
2022-11-13T07:55:47.118Z,45.00
2022-11-13T07:56:47.132Z,50.63
2022-11-13T07:57:47.154Z,50.63
2022-11-13T07:58:47.160Z,50.63
2022-11-13T07:59:47.175Z,50.63
2022-11-13T08:00:47.248Z,50.63
2022-11-13T08:01:47.203Z,50.63
2022-11-13T08:02:47.219Z,50.63
2022-11-13T08:03:47.233Z,56.25
2022-11-13T08:04:47.259Z,56.25
2022-11-13T08:05:47.261Z,56.25
2022-11-13T08:06:47.284Z,56.25
2022-11-13T08:07:51.025Z,56.25
2022-11-13T08:08:47.305Z,61.88
2022-11-13T08:09:47.315Z,61.88
2022-11-13T08:10:47.332Z,61.88
2022-11-13T08:11:47.345Z,61.88
2022-11-13T08:12:47.360Z,67.50
2022-11-13T08:13:47.374Z,67.50
2022-11-13T08:14:47.387Z,78.75
2022-11-13T08:15:47.405Z,73.13
2022-11-13T08:16:47.416Z,84.38
2022-11-13T08:17:47.431Z,78.75
2022-11-13T08:18:47.445Z,84.38
2022-11-13T08:19:47.461Z,90.00
2022-11-13T08:20:47.474Z,90.00
2022-11-13T08:21:47.493Z,90.00
2022-11-13T08:22:47.503Z,90.00
2022-11-13T08:23:47.520Z,84.38
2022-11-13T08:24:47.532Z,90.00
2022-11-13T08:25:47.547Z,90.00
2022-11-13T08:26:47.561Z,84.38
2022-11-13T08:27:47.578Z,90.00
2022-11-13T08:28:47.590Z,95.63
2022-11-13T08:29:47.605Z,90.00
2022-11-13T08:30:47.620Z,95.63
2022-11-13T08:31:47.635Z,95.63
2022-11-13T08:32:47.652Z,101.25
2022-11-13T08:33:47.662Z,95.63
2022-11-13T08:34:47.677Z,101.25
2022-11-13T08:35:47.693Z,101.25
2022-11-13T08:36:47.711Z,101.25
2022-11-13T08:37:47.725Z,106.88
2022-11-13T08:38:47.735Z,106.88
2022-11-13T08:39:47.751Z,106.88
2022-11-13T08:40:47.765Z,106.88
2022-11-13T08:41:47.781Z,112.50
2022-11-13T08:42:47.799Z,118.13
2022-11-13T08:43:47.810Z,123.75
2022-11-13T08:44:47.826Z,123.75
2022-11-13T08:45:47.842Z,123.75
2022-11-13T08:46:47.855Z,123.75
2022-11-13T08:47:47.868Z,118.13
2022-11-13T08:48:47.884Z,118.13
2022-11-13T08:49:47.898Z,118.13
2022-11-13T08:50:47.914Z,118.13
2022-11-13T08:51:47.929Z,118.13
2022-11-13T08:52:47.941Z,118.13
2022-11-13T08:53:47.958Z,112.50
2022-11-13T08:54:47.972Z,123.75
2022-11-13T08:55:47.987Z,129.38
2022-11-13T08:56:51.549Z,135.00
2022-11-13T08:57:48.046Z,135.00
2022-11-13T08:58:48.048Z,140.63
2022-11-13T08:59:48.049Z,140.63
2022-11-13T09:00:48.069Z,151.88
2022-11-13T09:01:48.078Z,151.88
2022-11-13T09:02:48.091Z,151.88
2022-11-13T09:03:48.153Z,157.50
2022-11-13T09:04:48.121Z,151.88
2022-11-13T09:05:48.138Z,157.50
2022-11-13T09:06:48.192Z,151.88
2022-11-13T09:07:48.165Z,146.25
2022-11-13T09:08:48.182Z,151.88
2022-11-13T09:09:48.195Z,157.50
2022-11-13T09:10:48.217Z,151.88
2022-11-13T09:11:48.232Z,151.88
2022-11-13T09:12:48.240Z,146.25
2022-11-13T09:13:52.944Z,146.25
2022-11-13T09:14:48.275Z,146.25
2022-11-13T09:15:48.289Z,151.88
2022-11-13T09:16:48.302Z,157.50
2022-11-13T09:17:48.318Z,157.50
2022-11-13T09:18:48.348Z,151.88
2022-11-13T09:19:48.361Z,146.25
2022-11-13T09:20:48.371Z,146.25
2022-11-13T09:21:48.379Z,146.25
2022-11-13T09:22:48.397Z,146.25
2022-11-13T09:23:48.409Z,146.25
2022-11-13T09:24:48.424Z,146.25
2022-11-13T09:25:48.439Z,151.88
2022-11-13T09:26:48.454Z,146.25
2022-11-13T09:27:48.477Z,140.63
2022-11-13T09:28:48.483Z,140.63
2022-11-13T09:29:51.487Z,140.63
2022-11-13T09:30:48.517Z,140.63
2022-11-13T09:31:48.530Z,146.25
2022-11-13T09:32:48.545Z,140.63
2022-11-13T09:33:48.561Z,140.63
2022-11-13T09:34:48.578Z,140.63
2022-11-13T09:35:48.590Z,135.00
2022-11-13T09:36:48.605Z,135.00
2022-11-13T09:37:48.621Z,140.63
2022-11-13T09:38:48.638Z,140.63
2022-11-13T09:39:48.666Z,140.63
2022-11-13T09:40:48.667Z,140.63
2022-11-13T09:41:48.682Z,140.63
2022-11-13T09:42:48.699Z,146.25
2022-11-13T09:43:48.713Z,140.63
2022-11-13T09:44:48.728Z,146.25
2022-11-13T09:45:48.748Z,146.25
2022-11-13T09:46:48.760Z,151.88
2022-11-13T09:47:48.775Z,157.50
2022-11-13T09:48:48.792Z,163.13
2022-11-13T09:49:48.807Z,174.38
2022-11-13T09:50:48.823Z,180.00
2022-11-13T09:51:48.837Z,185.63
2022-11-13T09:52:48.851Z,180.00
2022-11-13T09:53:48.867Z,191.25
2022-11-13T09:54:48.886Z,185.63
2022-11-13T09:55:48.915Z,185.63
2022-11-13T09:56:48.914Z,185.63
2022-11-13T09:57:48.930Z,180.00
2022-11-13T09:58:48.947Z,180.00
2022-11-13T09:59:48.963Z,185.63
2022-11-13T10:00:49.000Z,180.00
2022-11-13T10:01:48.990Z,180.00
2022-11-13T10:02:49.008Z,185.63
2022-11-13T10:04:04.681Z,185.63
2022-11-13T10:04:49.037Z,196.88
2022-11-13T10:05:49.053Z,202.50
2022-11-13T10:06:49.113Z,208.13
2022-11-13T10:07:49.086Z,208.13
2022-11-13T10:08:49.101Z,208.13
2022-11-13T10:09:49.119Z,213.75
2022-11-13T10:10:54.825Z,219.38
2022-11-13T10:11:49.147Z,230.63
2022-11-13T10:12:49.163Z,225.00
2022-11-13T10:13:49.178Z,230.63
2022-11-13T10:14:49.198Z,236.25
2022-11-13T10:15:49.213Z,236.25
2022-11-13T10:16:49.226Z,241.88
2022-11-13T10:17:49.242Z,241.88
2022-11-13T10:18:49.259Z,253.13
2022-11-13T10:19:49.276Z,258.75
2022-11-13T10:20:49.291Z,292.50
2022-11-13T10:21:52.184Z,303.75
2022-11-13T10:22:49.320Z,275.63
2022-11-13T10:23:49.338Z,264.38
2022-11-13T10:24:49.352Z,275.63
2022-11-13T10:25:49.383Z,275.63
2022-11-13T10:26:49.384Z,281.25
2022-11-13T10:27:49.431Z,281.25
2022-11-13T10:28:51.200Z,298.13
2022-11-13T10:29:49.480Z,326.25
2022-11-13T10:30:49.451Z,331.88
2022-11-13T10:31:49.465Z,331.88
2022-11-13T10:32:49.482Z,343.13
2022-11-13T10:33:49.495Z,348.75
2022-11-13T10:34:49.512Z,365.63
2022-11-13T10:35:49.527Z,331.88
2022-11-13T10:36:49.543Z,298.13
2022-11-13T10:37:49.559Z,298.13
2022-11-13T10:38:49.575Z,286.88
2022-11-13T10:39:49.595Z,275.63
2022-11-13T10:40:49.607Z,275.63
2022-11-13T10:41:49.630Z,275.63
2022-11-13T10:42:49.640Z,281.25
2022-11-13T10:43:49.657Z,298.13
2022-11-13T10:44:49.672Z,292.50
2022-11-13T10:45:49.688Z,292.50
2022-11-13T10:46:49.710Z,292.50
2022-11-13T10:48:03.833Z,292.50
2022-11-13T10:48:49.738Z,298.13
2022-11-13T10:49:49.751Z,303.75
2022-11-13T10:50:49.776Z,309.38
2022-11-13T10:51:49.788Z,326.25
2022-11-13T10:52:49.802Z,354.38
2022-11-13T10:53:49.821Z,365.63
2022-11-13T10:54:49.836Z,365.63
2022-11-13T10:55:49.850Z,326.25
2022-11-13T10:56:49.865Z,320.63
2022-11-13T10:57:52.610Z,337.50
2022-11-13T10:58:49.902Z,331.88
2022-11-13T10:59:49.916Z,337.50
2022-11-13T11:00:50.060Z,337.50
2022-11-13T11:01:49.946Z,326.25
2022-11-13T11:02:49.964Z,343.13
2022-11-13T11:03:49.982Z,354.38
2022-11-13T11:04:49.997Z,343.13
2022-11-13T11:05:50.011Z,337.50
2022-11-13T11:07:18.584Z,331.88
2022-11-13T11:07:50.091Z,326.25
2022-11-13T11:08:50.061Z,303.75
2022-11-13T11:09:50.076Z,281.25
2022-11-13T11:10:50.094Z,281.25
2022-11-13T11:11:50.110Z,275.63
2022-11-13T11:12:50.127Z,281.25
2022-11-13T11:13:50.142Z,281.25
2022-11-13T11:14:50.159Z,292.50
2022-11-13T11:15:50.175Z,292.50
2022-11-13T11:16:50.192Z,298.13
2022-11-13T11:17:50.208Z,298.13
2022-11-13T11:18:50.226Z,298.13
2022-11-13T11:19:50.241Z,292.50
2022-11-13T11:20:50.281Z,303.75
2022-11-13T11:21:50.273Z,309.38
2022-11-13T11:22:50.291Z,315.00
2022-11-13T11:23:55.578Z,303.75
2022-11-13T11:24:50.341Z,320.63
2022-11-13T11:25:50.339Z,309.38
2022-11-13T11:26:50.357Z,303.75
2022-11-13T11:27:50.372Z,286.88
2022-11-13T11:28:50.387Z,303.75
2022-11-13T11:29:50.406Z,309.38
2022-11-13T11:30:50.428Z,320.63
2022-11-13T11:31:50.438Z,343.13
2022-11-13T11:32:50.453Z,337.50
2022-11-13T11:33:50.470Z,371.25
2022-11-13T11:34:53.718Z,365.63
2022-11-13T11:35:50.501Z,393.75
2022-11-13T11:36:50.520Z,399.38
2022-11-13T11:37:50.537Z,343.13
2022-11-13T11:38:50.551Z,331.88
2022-11-13T11:39:50.569Z,360.00
2022-11-13T11:40:50.582Z,365.63
2022-11-13T11:41:50.601Z,360.00
2022-11-13T11:42:50.618Z,371.25
2022-11-13T11:43:50.636Z,348.75
2022-11-13T11:44:50.655Z,360.00
2022-11-13T11:45:50.666Z,326.25
2022-11-13T11:46:50.683Z,343.13
2022-11-13T11:47:50.707Z,365.63
2022-11-13T11:48:50.718Z,331.88
2022-11-13T11:49:50.734Z,320.63
2022-11-13T11:50:50.752Z,298.13
2022-11-13T11:51:50.777Z,286.88
2022-11-13T11:52:50.783Z,264.38
2022-11-13T11:53:50.811Z,236.25
2022-11-13T11:54:50.822Z,236.25
2022-11-13T11:55:50.833Z,258.75
2022-11-13T11:56:50.851Z,253.13
2022-11-13T11:57:50.866Z,270.00
2022-11-13T11:58:50.883Z,241.88
2022-11-13T11:59:50.900Z,230.63
2022-11-13T12:00:50.919Z,230.63
2022-11-13T12:01:50.933Z,236.25
2022-11-13T12:02:50.951Z,208.13
2022-11-13T12:03:50.967Z,208.13
2022-11-13T12:04:50.998Z,208.13
2022-11-13T12:05:50.998Z,208.13
2022-11-13T12:06:51.088Z,202.50
2022-11-13T12:07:51.032Z,180.00
2022-11-13T12:08:51.048Z,180.00
2022-11-13T12:09:51.066Z,180.00
2022-11-13T12:10:51.082Z,174.38
2022-11-13T12:11:51.099Z,174.38
2022-11-13T12:12:51.114Z,174.38
2022-11-13T12:13:51.130Z,174.38
2022-11-13T12:14:51.152Z,174.38
2022-11-13T12:15:51.163Z,174.38
2022-11-13T12:16:51.181Z,174.38
2022-11-13T12:17:51.196Z,168.75
2022-11-13T12:18:51.216Z,168.75
2022-11-13T12:19:51.230Z,174.38
2022-11-13T12:20:51.244Z,168.75
2022-11-13T12:21:51.260Z,168.75
2022-11-13T12:22:51.282Z,168.75
2022-11-13T12:23:51.294Z,168.75
2022-11-13T12:24:51.311Z,168.75
2022-11-13T12:25:51.326Z,168.75
2022-11-13T12:26:51.341Z,168.75
2022-11-13T12:27:51.357Z,168.75
2022-11-13T12:28:51.372Z,168.75
2022-11-13T12:29:51.389Z,163.13
2022-11-13T12:30:51.405Z,163.13
2022-11-13T12:31:51.420Z,163.13
2022-11-13T12:32:51.439Z,163.13
2022-11-13T12:33:52.313Z,163.13
2022-11-13T12:34:51.472Z,163.13
2022-11-13T12:35:51.484Z,163.13
2022-11-13T12:36:51.502Z,163.13
2022-11-13T12:37:51.521Z,163.13
2022-11-13T12:38:51.532Z,163.13
2022-11-13T12:39:51.547Z,163.13
2022-11-13T12:40:51.561Z,168.75
2022-11-13T12:41:51.580Z,163.13
2022-11-13T12:42:51.606Z,163.13
2022-11-13T12:43:51.612Z,157.50
2022-11-13T12:44:51.626Z,163.13
2022-11-13T12:45:51.641Z,163.13
2022-11-13T12:46:51.661Z,157.50
2022-11-13T12:47:51.674Z,157.50
2022-11-13T12:48:51.691Z,157.50
2022-11-13T12:49:51.708Z,157.50
2022-11-13T12:50:51.723Z,151.88
2022-11-13T12:51:51.736Z,151.88
2022-11-13T12:52:51.756Z,151.88
2022-11-13T12:53:51.770Z,151.88
2022-11-13T12:54:51.785Z,151.88
2022-11-13T12:55:51.803Z,151.88
2022-11-13T12:56:51.852Z,151.88
2022-11-13T12:57:51.831Z,146.25
2022-11-13T12:59:15.360Z,146.25